Time;durP1;ratioP1;P1;durP2;ratioP2;P2;SDS_P1;SDS_P2;PMS_P1;PMS_P2;Temp;Humidity;BMP_temperature;BMP_pressure;BME280_temperature;BME280_humidity;BME280_pressure;Samples;Min_cycle;Max_cycle;Signal;HPM_P1;HPM_P2
2023/06/11 00:02:54;;;;;;;3.35;2.10;;;33.00;45.10;;;;;;10538993;28;20139;-27
2023/06/11 00:08:00;;;;;;;2.38;1.90;;;32.90;45.10;;;;;;10535480;28;20110;-26
2023/06/11 00:13:03;;;;;;;2.78;1.63;;;32.80;45.00;;;;;;10534855;28;20477;-28
2023/06/11 00:18:06;;;;;;;3.22;2.10;;;32.80;45.10;;;;;;10542638;28;20048;-27
2023/06/11 00:23:08;;;;;;;3.25;2.17;;;32.70;45.10;;;;;;10531707;28;20124;-26
2023/06/11 00:28:12;;;;;;;5.18;2.35;;;32.70;45.10;;;;;;10542467;28;20039;-26
2023/06/11 00:33:13;;;;;;;2.65;2.17;;;32.60;45.10;;;;;;10535398;28;20139;-27
2023/06/11 00:38:16;;;;;;;2.75;2.30;;;32.60;45.80;;;;;;10531704;28;20048;-32
2023/06/11 00:43:22;;;;;;;4.30;2.17;;;32.60;45.20;;;;;;10543465;28;20043;-26
2023/06/11 00:48:25;;;;;;;2.53;2.33;;;32.50;45.10;;;;;;10534813;28;20412;-28
2023/06/11 00:53:27;;;;;;;5.13;2.30;;;32.40;45.00;;;;;;10535902;28;20044;-28
2023/06/11 00:58:33;;;;;;;7.03;2.33;;;32.40;45.00;;;;;;10538579;28;20139;-27
2023/06/11 01:03:34;;;;;;;4.75;2.00;;;32.30;45.00;;;;;;10535629;28;20055;-27
2023/06/11 01:08:39;;;;;;;2.45;2.03;;;32.30;45.10;;;;;;10529276;28;20047;-26
2023/06/11 01:13:42;;;;;;;3.70;2.55;;;32.20;45.10;;;;;;10524950;28;20048;-29
2023/06/11 01:18:53;;;;;;;4.20;2.58;;;32.20;45.20;;;;;;10535887;28;20109;-29
2023/06/11 01:24:07;;;;;;;4.70;2.83;;;32.10;45.20;;;;;;10540346;28;20543;-26
2023/06/11 01:29:10;;;;;;;2.30;2.05;;;32.10;45.30;;;;;;10538539;28;20075;-28
2023/06/11 01:34:13;;;;;;;3.20;2.38;;;32.00;45.20;;;;;;10528909;28;20048;-29
2023/06/11 01:39:15;;;;;;;3.28;2.40;;;32.00;45.30;;;;;;10565950;28;20156;-28
2023/06/11 01:44:20;;;;;;;3.17;2.30;;;32.00;45.30;;;;;;10521723;28;20090;-30
2023/06/11 01:49:21;;;;;;;2.92;2.38;;;31.90;45.30;;;;;;10547661;28;20086;-28
2023/06/11 01:54:23;;;;;;;4.45;2.28;;;31.90;45.40;;;;;;10539262;28;20050;-30
2023/06/11 01:59:26;;;;;;;3.75;2.63;;;31.80;45.40;;;;;;10532233;28;20151;-27
2023/06/11 02:04:28;;;;;;;3.65;2.47;;;31.80;45.40;;;;;;10547177;28;20129;-29
2023/06/11 02:09:30;;;;;;;2.92;2.20;;;31.70;45.40;;;;;;10523624;28;20123;-28
2023/06/11 02:14:33;;;;;;;4.50;2.58;;;31.70;45.50;;;;;;10529744;28;20058;-26
2023/06/11 02:19:35;;;;;;;3.83;2.40;;;31.60;45.50;;;;;;10525296;28;20142;-27
2023/06/11 02:24:37;;;;;;;3.13;2.72;;;31.60;45.50;;;;;;10530417;28;20071;-30
2023/06/11 02:29:40;;;;;;;2.78;2.53;;;31.60;45.50;;;;;;10508887;28;20076;-29
2023/06/11 02:34:42;;;;;;;3.90;2.40;;;31.50;45.50;;;;;;10497767;28;20048;-28
2023/06/11 02:39:44;;;;;;;3.75;2.40;;;31.50;45.60;;;;;;10530512;28;20056;-27
2023/06/11 02:44:47;;;;;;;3.30;2.50;;;31.50;45.60;;;;;;10528460;28;20040;-31
2023/06/11 02:49:49;;;;;;;3.80;2.30;;;31.40;45.60;;;;;;10530413;28;20094;-31
2023/06/11 02:54:51;;;;;;;3.17;2.88;;;31.40;45.70;;;;;;10538648;28;20036;-33
2023/06/11 03:15:30;;;;;;;2.83;2.40;;;31.20;45.10;;;;;;10512173;27;20129;-29
2023/06/11 03:20:32;;;;;;;3.20;2.70;;;31.10;45.90;;;;;;10485408;28;20555;-32
2023/06/11 03:25:33;;;;;;;7.80;2.92;;;31.10;46.50;;;;;;10482108;28;20047;-32
2023/06/11 03:30:37;;;;;;;5.47;2.50;;;31.10;46.00;;;;;;10481348;28;20043;-29
2023/06/11 03:35:39;;;;;;;4.18;2.80;;;31.00;46.00;;;;;;10480851;28;20045;-31
2023/06/11 03:40:41;;;;;;;3.72;2.67;;;31.00;46.00;;;;;;10478995;28;20049;-26
2023/06/11 03:45:44;;;;;;;2.90;2.58;;;31.00;46.10;;;;;;10495437;28;20064;-32
2023/06/11 03:50:46;;;;;;;3.58;2.70;;;31.00;46.10;;;;;;10487159;28;20480;-30
2023/06/11 03:55:48;;;;;;;5.32;3.08;;;31.00;46.10;;;;;;10485318;28;20167;-28
2023/06/11 04:00:51;;;;;;;5.20;3.00;;;30.90;46.10;;;;;;10489926;28;20551;-28
2023/06/11 04:05:53;;;;;;;4.80;2.92;;;30.90;46.20;;;;;;10483135;28;20067;-31
2023/06/11 04:10:54;;;;;;;4.28;2.97;;;30.90;46.30;;;;;;10480896;28;20135;-27
2023/06/11 04:15:57;;;;;;;4.05;3.30;;;30.90;46.30;;;;;;10479035;28;20056;-30
2023/06/11 04:20:59;;;;;;;2.95;2.65;;;30.80;46.30;;;;;;10485509;28;20044;-30
2023/06/11 04:26:02;;;;;;;5.10;3.15;;;30.80;46.30;;;;;;10458083;28;20095;-33
2023/06/11 04:31:06;;;;;;;4.15;3.03;;;30.80;46.40;;;;;;10456141;28;20041;-27
2023/06/11 04:36:09;;;;;;;4.32;3.05;;;30.80;46.40;;;;;;10458084;28;20064;-26
2023/06/11 04:41:12;;;;;;;4.10;3.38;;;30.80;46.40;;;;;;10460719;28;20433;-33
2023/06/11 04:46:15;;;;;;;4.03;3.15;;;30.80;46.50;;;;;;10464459;28;20489;-30
2023/06/11 04:51:17;;;;;;;2.80;2.60;;;30.70;46.50;;;;;;10453994;28;20045;-27
2023/06/11 04:56:19;;;;;;;3.90;3.03;;;30.70;46.50;;;;;;10456673;28;20127;-31
2023/06/11 05:01:22;;;;;;;4.68;3.13;;;30.70;46.50;;;;;;10453633;28;20510;-27
2023/06/11 05:06:25;;;;;;;4.00;3.10;;;30.70;46.50;;;;;;10458681;28;20047;-27
2023/06/11 05:11:27;;;;;;;3.88;3.30;;;30.70;46.60;;;;;;10458599;28;20143;-28
2023/06/11 05:16:31;;;;;;;3.33;3.03;;;30.70;46.60;;;;;;10454499;28;20128;-27
2023/06/11 05:21:33;;;;;;;5.90;3.35;;;30.70;46.70;;;;;;10460892;28;20084;-25
2023/06/11 05:26:35;;;;;;;3.88;2.72;;;30.70;46.70;;;;;;10455330;28;20052;-26
2023/06/11 05:31:38;;;;;;;5.22;3.38;;;30.70;46.70;;;;;;10458305;28;20148;-26
2023/06/11 05:36:42;;;;;;;4.93;3.08;;;30.70;46.70;;;;;;10458428;28;20106;-27
2023/06/11 05:41:43;;;;;;;3.63;2.83;;;30.70;46.80;;;;;;10456242;28;20044;-26
2023/06/11 05:46:46;;;;;;;3.42;3.13;;;30.70;46.70;;;;;;10455995;28;20051;-26
2023/06/11 05:51:48;;;;;;;6.25;3.08;;;30.70;46.80;;;;;;10460423;28;20793;-27
2023/06/11 05:56:50;;;;;;;4.05;3.42;;;30.70;46.90;;;;;;10453827;28;20401;-33
2023/06/11 06:01:53;;;;;;;3.67;3.38;;;30.60;46.90;;;;;;10451936;28;20060;-29
2023/06/11 06:06:56;;;;;;;3.30;3.00;;;30.60;46.90;;;;;;10452533;28;20077;-30
2023/06/11 06:11:57;;;;;;;4.35;3.58;;;30.70;46.90;;;;;;10456519;28;20429;-26
2023/06/11 06:17:00;;;;;;;3.67;3.25;;;30.70;47.00;;;;;;10451185;28;20506;-26
2023/06/11 06:22:02;;;;;;;3.47;3.17;;;30.70;47.00;;;;;;10452680;28;20135;-33
2023/06/11 06:27:05;;;;;;;4.28;3.33;;;30.70;46.90;;;;;;10449317;28;20058;-28
2023/06/11 06:32:09;;;;;;;4.75;4.07;;;30.80;47.00;;;;;;10458811;28;20049;-28
2023/06/11 06:37:11;;;;;;;4.30;3.88;;;30.80;47.00;;;;;;10454359;28;20052;-28
2023/06/11 06:42:13;;;;;;;4.47;3.50;;;30.80;47.10;;;;;;10463299;28;20051;-29
2023/06/11 06:47:17;;;;;;;3.35;3.05;;;30.80;47.10;;;;;;10465198;28;20090;-30
2023/06/11 06:52:18;;;;;;;4.70;3.10;;;30.80;47.10;;;;;;10455534;28;20057;-26
2023/06/11 06:57:20;;;;;;;5.22;3.38;;;30.80;47.20;;;;;;10444127;28;20128;-26
2023/06/11 07:02:23;;;;;;;5.90;3.55;;;30.80;47.10;;;;;;10459269;28;20580;-27
2023/06/11 07:07:25;;;;;;;7.32;3.30;;;30.80;47.30;;;;;;10458661;28;20044;-26
2023/06/11 07:12:27;;;;;;;4.50;3.38;;;30.90;47.40;;;;;;10448084;28;20136;-28
2023/06/11 07:17:30;;;;;;;4.85;4.00;;;30.90;47.50;;;;;;10446254;28;20048;-28
2023/06/11 07:22:32;;;;;;;4.63;3.60;;;31.00;47.50;;;;;;10448864;28;20135;-27
2023/06/11 07:27:34;;;;;;;6.15;3.55;;;31.00;47.60;;;;;;10451676;28;20053;-27
2023/06/11 07:32:37;;;;;;;5.72;4.10;;;31.00;47.60;;;;;;10446711;28;20072;-28
2023/06/11 07:37:40;;;;;;;4.00;3.60;;;31.10;47.60;;;;;;10455717;28;20139;-27
2023/06/11 07:42:44;;;;;;;7.35;3.72;;;31.10;47.50;;;;;;10446078;28;20076;-26
2023/06/11 07:47:47;;;;;;;5.00;3.90;;;31.20;47.60;;;;;;10463481;28;20094;-29
2023/06/11 07:52:49;;;;;;;4.07;3.67;;;31.10;47.80;;;;;;10462153;28;20052;-26
2023/06/11 07:57:50;;;;;;;4.65;3.85;;;31.20;47.80;;;;;;10448890;28;20072;-27
2023/06/11 08:02:54;;;;;;;4.72;3.78;;;31.30;47.90;;;;;;10458064;28;20409;-27
2023/06/11 08:07:55;;;;;;;4.50;3.45;;;31.20;47.90;;;;;;10461535;28;20077;-31
2023/06/11 08:12:58;;;;;;;5.82;3.83;;;31.30;47.70;;;;;;10453935;28;20497;-27
2023/06/11 08:18:01;;;;;;;5.35;4.38;;;31.50;47.60;;;;;;10454765;28;20128;-30
2023/06/11 08:23:03;;;;;;;8.43;3.67;;;31.60;47.40;;;;;;10451080;28;20059;-27
2023/06/11 08:28:05;;;;;;;6.57;5.07;;;31.70;47.30;;;;;;10458700;28;20131;-27
2023/06/11 08:33:09;;;;;;;5.97;3.83;;;31.10;48.20;;;;;;10453920;28;20052;-27
2023/06/11 08:38:11;;;;;;;7.43;4.40;;;30.60;49.30;;;;;;10457777;28;20044;-28
2023/06/11 08:43:13;;;;;;;4.03;3.10;;;31.30;48.00;;;;;;10461584;28;20045;-28
2023/06/11 08:48:21;;;;;;;5.25;4.45;;;31.00;48.40;;;;;;10468751;28;20803;-26
2023/06/11 08:53:22;;;;;;;4.38;3.55;;;30.80;49.20;;;;;;10453861;28;20059;-26
2023/06/11 08:58:26;;;;;;;5.88;3.58;;;31.30;48.00;;;;;;10425889;28;20049;-28
2023/06/11 09:03:29;;;;;;;6.32;5.28;;;31.00;48.80;;;;;;10449126;28;20194;-29
2023/06/11 09:08:31;;;;;;;9.30;5.22;;;30.30;50.70;;;;;;10456030;28;20045;-30
2023/06/11 09:13:33;;;;;;;4.97;3.90;;;30.70;50.00;;;;;;10463902;28;20147;-32
2023/06/11 09:18:36;;;;;;;5.03;4.25;;;31.10;49.30;;;;;;10456638;28;20095;-28
2023/06/11 09:23:39;;;;;;;7.22;5.28;;;31.50;48.20;;;;;;10453587;28;20045;-24
2023/06/11 09:28:41;;;;;;;3.90;3.55;;;31.20;49.10;;;;;;10449891;28;20399;-26
2023/06/11 09:33:44;;;;;;;3.58;3.28;;;31.30;48.70;;;;;;10448878;28;20063;-27
2023/06/11 09:38:48;;;;;;;4.15;3.75;;;31.50;48.90;;;;;;10461517;28;20482;-27
2023/06/11 09:43:52;;;;;;;6.20;4.43;;;31.10;49.20;;;;;;10450912;28;20069;-26
2023/06/11 09:48:56;;;;;;;4.18;3.78;;;31.50;48.60;;;;;;10459951;28;20052;-29
2023/06/11 09:53:59;;;;;;;7.35;6.43;;;31.80;48.50;;;;;;10450567;28;20135;-31
2023/06/11 09:59:02;;;;;;;6.30;4.80;;;31.10;50.60;;;;;;10457683;28;20076;-28
2023/06/11 10:04:05;;;;;;;8.02;4.68;;;31.60;48.70;;;;;;10450422;28;20077;-29
2023/06/11 10:09:12;;;;;;;4.75;4.32;;;31.80;48.70;;;;;;10453926;28;20143;-27
2023/06/11 10:14:15;;;;;;;5.78;3.85;;;31.90;48.60;;;;;;10458281;28;20098;-32
2023/06/11 10:19:19;;;;;;;6.38;4.68;;;31.30;49.70;;;;;;10446481;28;20059;-29
2023/06/11 10:24:22;;;;;;;5.05;3.88;;;31.10;50.30;;;;;;10446541;28;20047;-27
2023/06/11 10:29:26;;;;;;;5.55;4.80;;;32.20;48.40;;;;;;10452321;28;20047;-29
2023/06/11 10:34:39;;;;;;;10.82;5.68;;;32.40;48.30;;;;;;10452320;28;20528;-31
2023/06/11 10:39:50;;;;;;;6.28;4.20;;;32.50;47.60;;;;;;10451390;28;20067;-32
2023/06/11 10:44:56;;;;;;;5.70;4.28;;;32.70;47.20;;;;;;10450690;28;20049;-29
2023/06/11 10:50:11;;;;;;;7.95;4.45;;;33.40;46.20;;;;;;10461322;28;20107;-29
2023/06/11 10:55:13;;;;;;;3.90;3.50;;;32.60;47.20;;;;;;10441924;28;20155;-28
2023/06/11 11:00:15;;;;;;;4.40;4.00;;;33.10;46.90;;;;;;10440940;28;20087;-27
2023/06/11 11:05:18;;;;;;;5.20;3.80;;;33.00;47.20;;;;;;10445006;28;20055;-30
2023/06/11 11:10:25;;;;;;;9.18;5.15;;;33.40;45.30;;;;;;10454202;28;20075;-29
2023/06/11 11:15:27;;;;;;;4.80;4.10;;;33.00;45.90;;;;;;10367402;28;20053;-25
2023/06/11 11:20:32;;;;;;;3.97;3.58;;;33.10;47.40;;;;;;10364843;28;20057;-27
2023/06/11 11:25:34;;;;;;;6.80;3.70;;;33.50;46.40;;;;;;10366072;28;20057;-30
2023/06/11 11:30:36;;;;;;;6.15;4.88;;;33.50;46.70;;;;;;10365637;28;20042;-26
2023/06/11 11:35:48;;;;;;;9.25;5.07;;;33.70;45.90;;;;;;10376867;28;20156;-27
2023/06/11 11:40:55;;;;;;;6.75;5.35;;;34.10;46.00;;;;;;10343456;28;20056;-27
2023/06/11 11:45:57;;;;;;;7.77;4.40;;;33.90;46.00;;;;;;10360739;28;20050;-28
2023/06/11 11:51:06;;;;;;;5.68;3.35;;;34.30;46.00;;;;;;10376966;28;20133;-30
2023/06/11 11:56:08;;;;;;;9.73;4.80;;;34.40;46.30;;;;;;10375771;28;20045;-27
2023/06/11 12:01:21;;;;;;;5.32;4.00;;;34.70;43.50;;;;;;10388190;28;20128;-31
2023/06/11 12:06:25;;;;;;;5.25;4.35;;;34.90;44.60;;;;;;10370137;28;20033;-30
2023/06/11 12:11:26;;;;;;;4.50;4.05;;;35.50;44.30;;;;;;10388514;28;20041;-31
2023/06/11 12:16:28;;;;;;;4.72;3.67;;;35.00;43.70;;;;;;10448471;28;20427;-29
2023/06/11 12:21:32;;;;;;;4.60;3.63;;;35.60;43.50;;;;;;10442353;28;20055;-30
2023/06/11 12:26:33;;;;;;;4.82;4.28;;;36.00;42.70;;;;;;10450317;28;20664;-25
2023/06/11 12:31:35;;;;;;;3.83;2.95;;;36.30;42.00;;;;;;10458693;28;20080;-28
2023/06/11 12:36:39;;;;;;;5.20;3.70;;;36.20;43.90;;;;;;10452210;28;20048;-30
2023/06/11 12:41:41;;;;;;;5.38;3.00;;;36.50;42.00;;;;;;10457375;28;20049;-27
2023/06/11 12:46:42;;;;;;;5.47;4.07;;;36.80;42.90;;;;;;10453957;28;20091;-26
2023/06/11 12:51:46;;;;;;;4.03;3.60;;;36.10;43.30;;;;;;10452186;28;20164;-27
2023/06/11 12:56:48;;;;;;;3.40;3.10;;;35.90;41.70;;;;;;10456627;28;20055;-32
2023/06/11 13:01:50;;;;;;;8.55;3.13;;;36.60;43.80;;;;;;10441350;28;20072;-29
2023/06/11 13:06:54;;;;;;;4.63;3.53;;;37.20;42.70;;;;;;10449376;28;20080;-29
2023/06/11 13:11:56;;;;;;;6.43;3.70;;;37.20;42.80;;;;;;10451405;28;20055;-27
2023/06/11 13:16:58;;;;;;;5.38;3.60;;;38.00;40.50;;;;;;10467969;28;20118;-29
2023/06/11 13:22:01;;;;;;;5.03;2.85;;;37.90;41.10;;;;;;10444096;28;20401;-26
2023/06/11 13:27:03;;;;;;;5.32;3.75;;;38.50;42.30;;;;;;10450477;28;20080;-27
2023/06/11 13:32:06;;;;;;;3.25;2.72;;;38.50;39.80;;;;;;10454144;28;20090;-27
2023/06/11 13:37:09;;;;;;;5.88;3.72;;;37.90;42.30;;;;;;10454512;28;20075;-28
2023/06/11 13:42:11;;;;;;;3.58;3.22;;;38.70;40.70;;;;;;10448368;28;20049;-27
2023/06/11 13:47:13;;;;;;;3.78;3.30;;;39.40;39.00;;;;;;10458199;28;20124;-31
2023/06/11 13:52:17;;;;;;;4.93;3.10;;;38.50;40.30;;;;;;10453157;28;20040;-28
2023/06/11 13:57:19;;;;;;;3.25;2.63;;;38.00;43.00;;;;;;10440382;28;20135;-28
2023/06/11 14:02:21;;;;;;;2.85;2.60;;;38.00;42.90;;;;;;10448679;28;20048;-27
2023/06/11 14:07:25;;;;;;;4.18;3.13;;;37.90;43.60;;;;;;10449380;28;20053;-27
2023/06/11 14:12:26;;;;;;;3.42;2.90;;;37.40;43.00;;;;;;10447227;28;20057;-26
2023/06/11 14:17:30;;;;;;;4.32;2.78;;;38.10;40.50;;;;;;10451929;28;20472;-27
2023/06/11 14:22:33;;;;;;;4.45;2.83;;;37.70;41.70;;;;;;10446879;28;20056;-27
2023/06/11 14:27:35;;;;;;;4.68;3.50;;;37.60;43.80;;;;;;10451196;28;20051;-27
2023/06/11 14:32:37;;;;;;;3.63;3.10;;;37.50;41.10;;;;;;10447088;28;20055;-29
2023/06/11 14:37:41;;;;;;;5.50;3.60;;;37.50;40.30;;;;;;10446141;28;20147;-29
2023/06/11 14:42:42;;;;;;;4.93;3.53;;;37.50;41.10;;;;;;10448856;28;20052;-27
2023/06/11 14:47:44;;;;;;;5.78;3.05;;;38.90;41.60;;;;;;10445776;28;20059;-28
2023/06/11 14:52:47;;;;;;;6.57;3.28;;;39.60;41.30;;;;;;10453164;28;20875;-27
2023/06/11 14:57:49;;;;;;;3.22;2.55;;;39.80;38.50;;;;;;10443826;28;20056;-30
2023/06/11 15:02:51;;;;;;;4.85;2.83;;;40.40;40.20;;;;;;10449793;28;20139;-27
2023/06/11 15:07:54;;;;;;;3.38;2.90;;;40.00;37.30;;;;;;10444916;28;20057;-28
2023/06/11 15:12:57;;;;;;;4.63;2.92;;;40.20;40.60;;;;;;10446420;28;20056;-28
2023/06/11 15:17:58;;;;;;;6.57;3.08;;;40.90;36.90;;;;;;10456675;28;20057;-27
2023/06/11 15:23:02;;;;;;;2.72;2.53;;;41.00;39.50;;;;;;10445559;28;20045;-30
2023/06/11 15:28:04;;;;;;;4.30;2.40;;;39.70;40.40;;;;;;10446463;28;20075;-28
2023/06/11 15:33:06;;;;;;;3.40;2.65;;;39.60;42.10;;;;;;10448298;28;20056;-30
2023/06/11 15:38:09;;;;;;;3.20;1.90;;;39.60;40.80;;;;;;10448713;28;20056;-32
2023/06/11 15:43:12;;;;;;;3.08;2.15;;;40.30;41.00;;;;;;10442984;28;20045;-33
2023/06/11 15:48:14;;;;;;;2.78;2.58;;;40.80;37.70;;;;;;10449291;28;20055;-26
2023/06/11 15:53:17;;;;;;;7.22;2.67;;;41.60;37.40;;;;;;10446860;28;20529;-27
2023/06/11 15:58:19;;;;;;;2.45;2.00;;;40.40;39.60;;;;;;10445025;28;20053;-28
2023/06/11 16:03:21;;;;;;;3.08;2.70;;;41.10;40.10;;;;;;10441649;28;20521;-28
2023/06/11 16:08:25;;;;;;;1.90;1.70;;;41.70;36.10;;;;;;10446213;28;20137;-25
2023/06/11 16:13:26;;;;;;;3.22;2.55;;;41.30;42.00;;;;;;10452060;28;20159;-27
2023/06/11 16:18:28;;;;;;;5.72;2.10;;;41.20;39.80;;;;;;10447216;28;20141;-29
2023/06/11 16:23:31;;;;;;;2.40;2.20;;;41.10;37.40;;;;;;10451616;28;20049;-29
2023/06/11 16:28:33;;;;;;;12.82;2.83;;;42.40;39.00;;;;;;10452100;28;20475;-27
2023/06/11 16:33:35;;;;;;;3.10;2.50;;;41.70;36.20;;;;;;10452525;28;20155;-25
2023/06/11 16:38:38;;;;;;;5.55;2.60;;;41.40;36.20;;;;;;10451999;28;20130;-27
2023/06/11 16:43:40;;;;;;;3.17;2.42;;;40.90;38.30;;;;;;10448984;28;20037;-27
2023/06/11 16:48:42;;;;;;;2.60;2.10;;;40.40;39.10;;;;;;10455090;28;20045;-26
2023/06/11 16:53:45;;;;;;;2.22;2.03;;;40.70;42.90;;;;;;10444911;28;20481;-28
2023/06/11 16:58:47;;;;;;;2.45;2.05;;;40.40;38.30;;;;;;10444894;28;20153;-27
2023/06/11 17:03:49;;;;;;;2.10;1.90;;;40.80;42.90;;;;;;10449854;28;20057;-33
2023/06/11 17:08:52;;;;;;;1.73;1.63;;;41.90;37.80;;;;;;10450077;28;20053;-29
2023/06/11 17:13:54;;;;;;;2.60;2.00;;;41.00;44.00;;;;;;10442132;28;20146;-25
2023/06/11 17:18:57;;;;;;;2.30;1.83;;;40.70;40.90;;;;;;10449121;28;20520;-27
2023/06/11 17:24:00;;;;;;;2.83;1.58;;;40.50;44.30;;;;;;10449997;28;20132;-28
2023/06/11 17:29:03;;;;;;;3.15;2.03;;;40.60;43.40;;;;;;10448469;28;20472;-31
2023/06/11 17:34:04;;;;;;;3.42;1.73;;;40.60;44.30;;;;;;10445325;28;20056;-28
2023/06/11 17:39:08;;;;;;;5.25;2.20;;;41.00;43.70;;;;;;10449854;28;20541;-27
2023/06/11 17:44:09;;;;;;;7.05;2.50;;;40.80;42.70;;;;;;10449776;28;20148;-27
2023/06/11 17:49:11;;;;;;;3.20;1.90;;;41.20;40.00;;;;;;10457833;28;20131;-28
2023/06/11 17:54:15;;;;;;;2.00;1.67;;;40.90;42.40;;;;;;10449202;28;20588;-28
2023/06/11 17:59:17;;;;;;;5.30;2.05;;;40.50;39.90;;;;;;10449574;28;20072;-26
2023/06/11 18:04:18;;;;;;;4.25;2.03;;;40.70;45.50;;;;;;10450685;28;21418;-27
2023/06/11 18:09:22;;;;;;;2.53;1.90;;;40.10;42.10;;;;;;10453952;28;20052;-27
2023/06/11 18:14:24;;;;;;;4.63;2.13;;;40.00;44.80;;;;;;10440884;28;20056;-25
2023/06/11 18:19:26;;;;;;;4.43;2.08;;;40.30;43.30;;;;;;10456356;28;20047;-28
2023/06/11 18:24:30;;;;;;;4.13;2.03;;;40.70;42.80;;;;;;10444084;28;20075;-27
2023/06/11 18:29:32;;;;;;;2.63;2.10;;;40.80;42.50;;;;;;10446329;28;20056;-28
2023/06/11 18:34:34;;;;;;;4.18;1.70;;;40.40;44.50;;;;;;10448332;28;20049;-25
2023/06/11 18:39:37;;;;;;;3.38;2.13;;;40.40;43.00;;;;;;10447061;28;20048;-33
2023/06/11 18:44:39;;;;;;;2.03;1.85;;;40.00;45.30;;;;;;10446701;28;20136;-28
2023/06/11 18:49:41;;;;;;;1.90;1.80;;;40.10;46.90;;;;;;10448973;28;20128;-28
2023/06/11 18:54:44;;;;;;;2.03;1.58;;;40.20;45.10;;;;;;10452422;28;20144;-27
2023/06/11 18:59:46;;;;;;;2.85;2.17;;;40.00;45.50;;;;;;10442004;28;20683;-25
2023/06/11 19:04:48;;;;;;;3.75;2.65;;;40.40;50.90;;;;;;10434941;28;20144;-27
2023/06/11 19:09:51;;;;;;;2.53;1.95;;;40.60;46.40;;;;;;10458369;28;20134;-29
2023/06/11 19:14:53;;;;;;;2.13;1.60;;;40.10;46.50;;;;;;10442292;28;20607;-29
2023/06/11 19:19:55;;;;;;;2.03;1.83;;;40.20;46.70;;;;;;10446041;28;20080;-27
2023/06/11 19:24:58;;;;;;;3.47;1.77;;;40.10;47.20;;;;;;10445028;28;20049;-27
2023/06/11 19:30:02;;;;;;;1.88;1.67;;;39.80;47.10;;;;;;10446254;28;20049;-30
2023/06/11 19:35:05;;;;;;;1.58;1.48;;;39.60;46.80;;;;;;10447379;28;20456;-28
2023/06/11 19:40:10;;;;;;;2.42;1.70;;;39.40;46.90;;;;;;10446514;28;20129;-26
2023/06/11 19:45:13;;;;;;;1.88;1.73;;;39.20;46.80;;;;;;10453879;28;20526;-27
2023/06/11 19:50:15;;;;;;;3.75;2.05;;;39.00;46.80;;;;;;10450301;28;20092;-26
2023/06/11 19:55:18;;;;;;;2.00;1.80;;;38.90;47.00;;;;;;10453768;28;20099;-27
2023/06/11 20:00:20;;;;;;;3.20;1.80;;;38.80;47.40;;;;;;10462346;28;20061;-26
2023/06/11 20:05:22;;;;;;;2.17;1.90;;;38.80;49.20;;;;;;10454203;28;20036;-28
2023/06/11 20:10:28;;;;;;;2.17;1.98;;;38.80;49.30;;;;;;10463399;28;20049;-29
2023/06/11 20:15:30;;;;;;;2.10;1.90;;;38.70;49.20;;;;;;10457357;28;20057;-27
2023/06/11 20:20:31;;;;;;;3.03;2.13;;;38.50;49.20;;;;;;10456444;28;20482;-31
2023/06/11 20:25:35;;;;;;;3.25;1.92;;;38.40;49.20;;;;;;10457274;28;20239;-28
2023/06/11 20:30:36;;;;;;;2.28;2.08;;;38.30;49.10;;;;;;10451981;28;20119;-25
2023/06/11 20:35:38;;;;;;;2.50;1.83;;;38.10;49.00;;;;;;10452545;28;20135;-27
2023/06/11 20:40:43;;;;;;;3.03;2.20;;;38.10;49.20;;;;;;10458478;28;20083;-27
2023/06/11 20:45:44;;;;;;;2.90;2.20;;;37.90;49.10;;;;;;10457953;28;20049;-27
2023/06/11 20:50:46;;;;;;;4.45;2.40;;;37.60;48.50;;;;;;10457106;28;20084;-28
2023/06/11 20:55:50;;;;;;;4.38;2.75;;;37.40;47.70;;;;;;10456327;28;20704;-28
2023/06/11 21:00:52;;;;;;;4.45;2.40;;;37.20;47.30;;;;;;10452592;28;20048;-27
2023/06/11 21:05:56;;;;;;;3.38;2.55;;;37.10;47.10;;;;;;10441406;28;20049;-27
2023/06/11 21:10:59;;;;;;;6.20;2.65;;;37.00;47.00;;;;;;10452159;28;20132;-30
2023/06/11 21:16:01;;;;;;;3.45;2.60;;;37.00;47.40;;;;;;10464013;28;20143;-31
2023/06/11 21:21:03;;;;;;;7.20;2.72;;;36.80;47.30;;;;;;10455843;28;20160;-26
2023/06/11 21:26:06;;;;;;;3.35;2.63;;;36.80;47.40;;;;;;10452683;28;20061;-29
2023/06/11 21:31:08;;;;;;;3.22;2.70;;;36.70;47.30;;;;;;10443715;28;20139;-27
2023/06/11 21:36:10;;;;;;;2.72;2.47;;;36.60;47.30;;;;;;10452806;28;20048;-28
2023/06/11 21:41:13;;;;;;;3.53;2.35;;;36.50;47.40;;;;;;10464485;28;20041;-26
2023/06/11 21:46:15;;;;;;;2.30;2.10;;;36.40;47.40;;;;;;10426317;28;20171;-26
2023/06/11 21:51:17;;;;;;;3.50;2.40;;;36.30;47.40;;;;;;10457207;28;20045;-25
2023/06/11 21:56:20;;;;;;;3.83;3.03;;;36.20;47.40;;;;;;10451752;28;20049;-26
2023/06/11 22:01:22;;;;;;;3.78;2.60;;;36.20;47.40;;;;;;10452782;28;20045;-26
2023/06/11 22:06:24;;;;;;;2.95;2.35;;;36.10;47.40;;;;;;10463150;28;20060;-27
2023/06/11 22:11:28;;;;;;;2.60;2.40;;;36.00;47.50;;;;;;10470987;28;20156;-26
2023/06/11 22:16:32;;;;;;;2.83;2.53;;;35.90;47.40;;;;;;10458546;28;20429;-27
2023/06/11 22:21:34;;;;;;;2.63;2.42;;;35.80;47.40;;;;;;10460794;28;20227;-29
2023/06/11 22:26:40;;;;;;;2.92;2.72;;;35.80;47.50;;;;;;10442745;28;20157;-32
2023/06/11 22:31:42;;;;;;;3.42;2.40;;;35.70;47.50;;;;;;10444024;28;20210;-25
2023/06/11 22:36:44;;;;;;;2.53;2.33;;;35.70;47.40;;;;;;10461084;28;20132;-27
2023/06/11 22:41:47;;;;;;;2.50;2.30;;;35.60;47.40;;;;;;10447419;28;20095;-28
2023/06/11 22:46:49;;;;;;;4.07;2.50;;;35.50;47.50;;;;;;10451069;28;20115;-26
2023/06/11 22:51:52;;;;;;;2.38;2.17;;;35.50;47.60;;;;;;10449193;28;20087;-26
2023/06/11 22:56:55;;;;;;;2.60;2.40;;;35.40;47.60;;;;;;10450427;28;20053;-29
2023/06/11 23:01:57;;;;;;;2.58;2.15;;;35.30;47.50;;;;;;10450700;28;20123;-26
2023/06/11 23:06:59;;;;;;;3.40;2.88;;;35.30;47.50;;;;;;10450245;28;20150;-28
2023/06/11 23:12:02;;;;;;;2.60;2.40;;;35.20;47.60;;;;;;10449296;28;20053;-29
2023/06/11 23:17:08;;;;;;;2.80;2.58;;;35.10;47.60;;;;;;10447607;28;20128;-28
2023/06/11 23:22:12;;;;;;;3.95;2.45;;;35.00;47.60;;;;;;10447702;28;20575;-28
2023/06/11 23:27:21;;;;;;;2.65;2.25;;;35.00;47.60;;;;;;10449360;28;20041;-26
2023/06/11 23:32:23;;;;;;;3.22;2.50;;;35.00;47.70;;;;;;10455681;28;20486;-24
2023/06/11 23:37:25;;;;;;;2.80;2.50;;;34.90;47.60;;;;;;10469904;28;20063;-34
2023/06/11 23:42:28;;;;;;;3.15;2.85;;;34.80;47.70;;;;;;10456725;28;20049;-28
2023/06/11 23:47:31;;;;;;;3.15;2.45;;;34.80;47.70;;;;;;10456234;28;20068;-28
2023/06/11 23:52:33;;;;;;;2.92;2.58;;;34.70;47.60;;;;;;10455212;28;20098;-28
2023/06/11 23:57:39;;;;;;;2.80;2.60;;;34.60;47.70;;;;;;10463542;28;20136;-27
